Time;durP1;ratioP1;P1;durP2;ratioP2;P2;SDS_P1;SDS_P2;PMS_P1;PMS_P2;Temp;Humidity;BMP_temperature;BMP_pressure;BME280_temperature;BME280_humidity;BME280_pressure;Samples;Min_cycle;Max_cycle;Signal;HPM_P1;HPM_P2
2022/12/14 00:02:36;;;;;;;47.00;25.65;;;-4.90;99.90;;;;;;5034428;28;20563;-49
2022/12/14 00:05:22;;;;;;;48.67;26.70;;;-4.90;99.90;;;;;;5041505;28;20025;-52
2022/12/14 00:08:09;;;;;;;53.65;28.02;;;-4.90;99.90;;;;;;5044835;28;20025;-50
2022/12/14 00:10:57;;;;;;;54.67;26.70;;;-4.90;99.90;;;;;;5034048;28;20035;-50
2022/12/14 00:13:43;;;;;;;44.25;27.42;;;-4.80;99.90;;;;;;5033585;28;20021;-51
2022/12/14 00:16:31;;;;;;;46.20;26.48;;;-4.90;99.90;;;;;;5032841;28;20060;-53
2022/12/14 00:19:17;;;;;;;50.33;27.58;;;-4.90;99.90;;;;;;5016162;28;20375;-52
2022/12/14 00:22:03;;;;;;;44.75;25.50;;;-4.80;99.90;;;;;;5013608;28;20107;-49
2022/12/14 00:24:49;;;;;;;44.67;25.52;;;-4.80;99.90;;;;;;5023801;28;20033;-50
2022/12/14 00:27:35;;;;;;;45.50;26.48;;;-4.80;99.90;;;;;;5040211;28;20060;-48
2022/12/14 00:30:21;;;;;;;47.75;25.83;;;-4.70;99.90;;;;;;5052051;28;20048;-50
2022/12/14 00:33:06;;;;;;;48.65;26.92;;;-5.00;99.90;;;;;;5039476;28;20108;-51
2022/12/14 00:35:52;;;;;;;46.08;26.05;;;-5.00;99.90;;;;;;5020969;28;20029;-49
2022/12/14 00:38:39;;;;;;;46.65;26.73;;;-5.00;99.90;;;;;;5034278;28;20037;-51
2022/12/14 00:41:25;;;;;;;45.58;27.20;;;-4.90;99.90;;;;;;5040292;28;20037;-50
2022/12/14 00:44:11;;;;;;;51.22;26.52;;;-4.90;99.90;;;;;;5038185;28;20061;-49
2022/12/14 00:46:57;;;;;;;49.65;27.52;;;-4.90;99.90;;;;;;5043296;28;20556;-49
2022/12/14 00:49:43;;;;;;;46.58;26.85;;;-4.90;99.90;;;;;;5052085;28;20585;-48
2022/12/14 00:52:29;;;;;;;48.47;26.77;;;-4.90;99.90;;;;;;5036669;28;20038;-47
2022/12/14 00:55:15;;;;;;;55.30;29.55;;;-4.90;99.90;;;;;;5044955;28;20039;-47
2022/12/14 00:58:01;;;;;;;51.17;28.13;;;-4.80;99.90;;;;;;5022392;28;20516;-49
2022/12/14 01:00:56;;;;;;;49.33;27.17;;;-4.80;99.90;;;;;;5031979;28;20541;-50
2022/12/14 01:03:42;;;;;;;47.78;27.20;;;-4.80;99.90;;;;;;5033254;28;20033;-51
2022/12/14 01:06:28;;;;;;;45.15;26.13;;;-4.80;99.90;;;;;;5024066;28;20536;-52
2022/12/14 01:09:15;;;;;;;46.78;25.95;;;-4.70;99.90;;;;;;5065634;28;20064;-49
2022/12/14 01:12:01;;;;;;;48.17;25.85;;;-4.80;99.90;;;;;;5063694;28;20412;-51
2022/12/14 01:14:47;;;;;;;48.88;26.08;;;-4.80;99.90;;;;;;5061184;28;20512;-50
2022/12/14 01:17:33;;;;;;;48.47;26.92;;;-4.80;99.90;;;;;;5043654;28;20496;-48
2022/12/14 01:20:19;;;;;;;52.97;27.50;;;-4.80;99.90;;;;;;5053133;28;20034;-53
2022/12/14 01:23:05;;;;;;;44.13;25.75;;;-4.70;99.90;;;;;;5069093;28;20048;-46
2022/12/14 01:25:51;;;;;;;108.43;50.08;;;-4.80;99.90;;;;;;5062160;28;20519;-50
2022/12/14 01:28:37;;;;;;;126.43;55.33;;;-4.80;99.90;;;;;;5065804;28;20501;-49
2022/12/14 01:31:26;;;;;;;100.72;43.67;;;-4.80;99.90;;;;;;5031859;28;20041;-48
2022/12/14 01:34:12;;;;;;;53.45;28.58;;;-4.70;99.90;;;;;;5036089;28;20041;-49
2022/12/14 01:36:58;;;;;;;55.83;27.85;;;-4.70;99.90;;;;;;5037945;28;20026;-50
2022/12/14 01:39:44;;;;;;;54.70;27.42;;;-4.60;99.90;;;;;;5032595;28;20061;-48
2022/12/14 01:42:29;;;;;;;51.15;27.65;;;-4.60;99.90;;;;;;5060240;28;20548;-49
2022/12/14 01:45:19;;;;;;;47.75;27.45;;;-4.60;99.90;;;;;;5057056;28;20493;-52
2022/12/14 01:48:11;;;;;;;43.80;26.23;;;-4.60;99.90;;;;;;5066344;28;20099;-52
2022/12/14 01:50:58;;;;;;;50.80;28.10;;;-4.50;99.90;;;;;;5072046;28;20025;-50
2022/12/14 01:53:45;;;;;;;43.00;25.10;;;-4.50;99.90;;;;;;5059307;28;20040;-48
2022/12/14 01:56:35;;;;;;;50.20;27.80;;;-4.50;99.90;;;;;;5071413;28;20059;-50
2022/12/14 01:59:27;;;;;;;43.25;25.63;;;-4.40;99.90;;;;;;5075316;28;20029;-47
2022/12/14 02:02:15;;;;;;;47.65;24.40;;;-4.50;99.90;;;;;;5071531;28;20024;-48
2022/12/14 02:05:04;;;;;;;43.72;25.42;;;-4.50;99.90;;;;;;5051718;28;20400;-50
2022/12/14 02:07:52;;;;;;;45.63;26.38;;;-4.50;99.90;;;;;;5068901;28;20036;-50
2022/12/14 02:10:38;;;;;;;43.08;25.15;;;-4.50;99.90;;;;;;5075180;28;20110;-50
2022/12/14 02:13:39;;;;;;;43.40;23.95;;;-4.50;99.90;;;;;;5086380;28;20542;-50
2022/12/14 02:16:26;;;;;;;45.47;24.08;;;-4.40;99.90;;;;;;5071762;28;20024;-49
2022/12/14 02:19:12;;;;;;;44.05;24.17;;;-4.40;99.90;;;;;;5071882;28;20511;-52
2022/12/14 02:22:16;;;;;;;41.92;25.48;;;-4.40;99.90;;;;;;5080881;28;20032;-48
2022/12/14 02:25:43;;;;;;;40.40;25.20;;;-4.40;99.90;;;;;;5081405;28;20024;-49
2022/12/14 02:29:07;;;;;;;43.42;23.77;;;-4.40;99.90;;;;;;5073348;28;20024;-48
2022/12/14 02:32:16;;;;;;;50.40;25.08;;;-4.40;99.90;;;;;;5080768;28;20060;-49
2022/12/14 02:35:43;;;;;;;46.15;26.80;;;-4.40;99.90;;;;;;5071488;28;20025;-48
2022/12/14 02:38:48;;;;;;;41.58;24.23;;;-4.40;99.90;;;;;;5071598;28;20570;-49
2022/12/14 02:41:47;;;;;;;44.00;23.85;;;-4.40;99.90;;;;;;5078846;28;20016;-48
2022/12/14 02:45:00;;;;;;;47.10;23.30;;;-4.40;99.90;;;;;;5071286;28;20035;-49
2022/12/14 02:48:04;;;;;;;41.40;22.48;;;-4.40;99.90;;;;;;5075756;28;20454;-48
2022/12/14 02:51:12;;;;;;;36.67;21.88;;;-4.40;99.90;;;;;;5085109;28;20119;-51
2022/12/14 02:54:37;;;;;;;40.85;23.30;;;-4.50;99.90;;;;;;5071547;28;20017;-48
2022/12/14 02:57:48;;;;;;;35.05;21.33;;;-4.40;99.90;;;;;;5058474;28;20103;-50
2022/12/14 03:00:36;;;;;;;39.83;22.30;;;-4.40;99.90;;;;;;5087309;28;20035;-48
2022/12/14 03:03:23;;;;;;;37.88;21.73;;;-4.40;99.90;;;;;;5080861;28;20501;-49
2022/12/14 03:06:27;;;;;;;35.17;21.13;;;-4.40;99.90;;;;;;5074297;28;20028;-49
2022/12/14 03:09:17;;;;;;;34.22;20.85;;;-4.40;99.90;;;;;;5088908;28;20029;-49
2022/12/14 03:12:09;;;;;;;30.08;19.42;;;-4.40;99.90;;;;;;5080184;28;20083;-49
2022/12/14 03:14:58;;;;;;;34.22;21.02;;;-4.40;99.90;;;;;;5071090;28;20035;-50
2022/12/14 03:17:50;;;;;;;33.40;21.08;;;-4.40;99.90;;;;;;5094526;28;20032;-49
2022/12/14 03:20:37;;;;;;;36.47;21.50;;;-4.30;99.90;;;;;;5064646;28;20016;-48
2022/12/14 03:23:30;;;;;;;41.53;21.13;;;-4.30;99.90;;;;;;5077980;28;20032;-48
2022/12/14 03:26:39;;;;;;;35.25;21.35;;;-4.30;99.90;;;;;;5077060;28;20035;-47
2022/12/14 03:29:34;;;;;;;41.10;23.48;;;-4.30;99.90;;;;;;5067826;28;20094;-51
2022/12/14 03:32:23;;;;;;;40.88;25.05;;;-4.30;99.90;;;;;;5072939;28;20071;-48
2022/12/14 03:35:45;;;;;;;43.05;24.10;;;-4.30;99.90;;;;;;5094021;28;20032;-48
2022/12/14 03:38:42;;;;;;;44.92;24.10;;;-4.30;99.90;;;;;;5058313;28;20045;-51
2022/12/14 03:41:42;;;;;;;39.53;24.63;;;-4.30;99.90;;;;;;5075190;28;20016;-50
2022/12/14 03:44:44;;;;;;;37.05;22.75;;;-4.30;99.90;;;;;;5074638;28;20043;-49
2022/12/14 03:48:01;;;;;;;40.60;23.77;;;-4.20;99.90;;;;;;5074611;28;20051;-50
2022/12/14 03:51:13;;;;;;;38.65;24.20;;;-4.30;99.90;;;;;;5066401;28;20020;-50
2022/12/14 03:54:07;;;;;;;38.08;23.10;;;-4.30;99.90;;;;;;5093229;28;20024;-49
2022/12/14 03:57:13;;;;;;;40.10;23.45;;;-4.30;99.90;;;;;;5073368;28;20025;-52
2022/12/14 03:59:59;;;;;;;;;;;-4.30;99.90;;;;;;5079682;28;20091;-52
2022/12/14 04:03:01;;;;;;;36.42;22.42;;;-4.30;99.90;;;;;;5050057;28;19914;-51
2022/12/14 04:06:31;;;;;;;38.72;23.00;;;-4.30;99.90;;;;;;5071186;28;20054;-52
2022/12/14 04:09:44;;;;;;;40.38;22.25;;;-4.30;99.90;;;;;;5084786;28;20404;-51
2022/12/14 04:18:58;;;;;;;34.78;21.88;;;-4.30;99.90;;;;;;5093218;28;20028;-49
2022/12/14 04:21:52;;;;;;;38.92;22.38;;;-4.30;99.90;;;;;;5090216;28;20456;-49
2022/12/14 04:28:05;;;;;;;37.55;22.45;;;-4.30;99.90;;;;;;5053400;28;20033;-50
2022/12/14 04:30:51;;;;;;;36.10;22.67;;;-4.30;99.90;;;;;;5081964;28;20101;-53
2022/12/14 04:33:47;;;;;;;37.13;23.48;;;-4.30;99.90;;;;;;5088793;28;20099;-49
2022/12/14 04:36:50;;;;;;;39.05;23.92;;;-4.30;99.90;;;;;;5075366;28;20044;-49
2022/12/14 04:39:51;;;;;;;37.78;22.42;;;-4.40;99.90;;;;;;5092680;28;20098;-52
2022/12/14 04:42:51;;;;;;;37.78;22.88;;;-4.50;99.90;;;;;;5091841;28;20028;-49
2022/12/14 04:45:49;;;;;;;39.83;22.70;;;-4.60;99.90;;;;;;5084683;28;20025;-53
2022/12/14 04:48:53;;;;;;;36.20;21.27;;;-4.60;99.90;;;;;;5085906;28;20107;-53
2022/12/14 04:51:49;;;;;;;39.03;21.60;;;-4.60;99.90;;;;;;5090699;28;20033;-50
2022/12/14 04:54:37;;;;;;;36.63;22.52;;;-4.60;99.90;;;;;;5072242;28;20048;-53
2022/12/14 04:57:38;;;;;;;62.13;31.23;;;-4.70;99.90;;;;;;5091028;28;20024;-50
2022/12/14 05:00:24;;;;;;;77.43;38.58;;;-4.70;99.90;;;;;;5078702;28;20103;-50
2022/12/14 05:03:18;;;;;;;58.00;30.40;;;-4.70;99.90;;;;;;5055635;28;20025;-51
2022/12/14 05:06:13;;;;;;;42.92;24.95;;;-4.70;99.90;;;;;;5093241;28;20030;-49
2022/12/14 05:09:11;;;;;;;43.28;23.95;;;-4.60;99.90;;;;;;5063072;28;20029;-54
2022/12/14 05:12:03;;;;;;;36.42;22.80;;;-4.70;99.90;;;;;;5092402;28;20043;-56
2022/12/14 05:15:34;;;;;;;39.60;23.08;;;-4.70;99.90;;;;;;5089989;28;20032;-52
2022/12/14 05:18:21;;;;;;;38.28;22.48;;;-4.70;99.90;;;;;;5094319;28;20031;-48
2022/12/14 05:21:08;;;;;;;39.42;22.63;;;-4.70;99.90;;;;;;5089245;28;20068;-52
2022/12/14 05:23:54;;;;;;;39.17;24.30;;;-4.80;99.90;;;;;;5105988;28;20036;-50
2022/12/14 05:26:40;;;;;;;39.22;22.75;;;-4.70;99.90;;;;;;5108687;28;20116;-49
2022/12/14 05:29:26;;;;;;;40.35;22.33;;;-4.70;99.90;;;;;;5091807;28;20412;-48
2022/12/14 05:32:12;;;;;;;42.42;23.40;;;-4.70;99.90;;;;;;5103095;28;20433;-49
2022/12/14 05:34:58;;;;;;;40.13;23.27;;;-4.70;99.90;;;;;;5101068;28;20036;-50
2022/12/14 05:37:44;;;;;;;38.55;24.13;;;-4.70;99.90;;;;;;5073554;28;20013;-49
2022/12/14 05:40:30;;;;;;;42.38;23.90;;;-4.70;99.90;;;;;;5084569;28;20016;-48
2022/12/14 05:43:16;;;;;;;39.65;23.45;;;-4.80;99.90;;;;;;5091628;28;20052;-53
2022/12/14 05:46:03;;;;;;;41.65;23.67;;;-4.80;99.90;;;;;;5085714;28;20032;-49
2022/12/14 05:48:49;;;;;;;41.13;25.13;;;-4.80;99.90;;;;;;5072755;28;20059;-51
2022/12/14 05:51:35;;;;;;;39.22;22.75;;;-4.90;99.90;;;;;;5078618;28;20032;-53
2022/12/14 05:54:21;;;;;;;39.28;24.13;;;-4.90;99.90;;;;;;5051877;28;20378;-53
2022/12/14 05:57:07;;;;;;;41.15;24.23;;;-4.80;99.90;;;;;;5063017;28;20553;-49
2022/12/14 05:59:53;;;;;;;40.75;24.52;;;-4.90;99.90;;;;;;5071803;28;20503;-52
2022/12/14 06:02:39;;;;;;;43.92;25.33;;;-4.90;99.90;;;;;;5071904;28;20028;-51
2022/12/14 06:05:25;;;;;;;40.83;24.45;;;-4.90;99.90;;;;;;5055826;28;20031;-55
2022/12/14 06:08:11;;;;;;;39.70;24.27;;;-5.00;99.90;;;;;;5057227;28;20111;-48
2022/12/14 06:11:03;;;;;;;38.42;24.63;;;-5.00;99.90;;;;;;5072150;28;20531;-51
2022/12/14 06:13:49;;;;;;;44.25;23.50;;;-5.00;99.90;;;;;;5072066;28;20060;-51
2022/12/14 06:16:38;;;;;;;38.97;24.02;;;-5.00;99.90;;;;;;5070539;28;20033;-51
2022/12/14 06:19:24;;;;;;;39.45;24.45;;;-5.00;99.90;;;;;;5064090;28;20081;-53
2022/12/14 06:22:10;;;;;;;42.95;24.27;;;-5.00;99.90;;;;;;5086828;28;20032;-54
2022/12/14 06:24:56;;;;;;;40.42;24.70;;;-5.00;99.90;;;;;;5091132;28;20082;-52
2022/12/14 06:27:42;;;;;;;40.63;22.55;;;-5.00;99.90;;;;;;5034301;28;20059;-54
2022/12/14 06:30:27;;;;;;;39.40;24.67;;;-5.00;99.90;;;;;;5065002;28;20490;-55
2022/12/14 06:33:14;;;;;;;39.25;23.13;;;-5.00;99.90;;;;;;5079929;28;20040;-50
2022/12/14 06:36:01;;;;;;;39.45;23.60;;;-5.00;99.90;;;;;;5080193;28;20451;-50
2022/12/14 06:38:47;;;;;;;43.10;24.17;;;-5.00;99.90;;;;;;5061317;28;20618;-55
2022/12/14 06:41:33;;;;;;;41.45;23.27;;;-5.20;99.90;;;;;;5083611;28;20020;-51
2022/12/14 06:44:19;;;;;;;43.17;25.30;;;-5.40;99.90;;;;;;5069881;28;20059;-50
2022/12/14 06:47:05;;;;;;;41.33;24.50;;;-5.40;99.90;;;;;;5070648;28;20031;-50
2022/12/14 06:49:51;;;;;;;40.70;24.45;;;-5.40;99.90;;;;;;5070131;28;20509;-49
2022/12/14 06:52:38;;;;;;;45.85;22.60;;;-5.40;99.90;;;;;;5070921;28;20485;-49
2022/12/14 06:55:25;;;;;;;46.75;25.52;;;-5.40;99.90;;;;;;5061107;28;20109;-50
2022/12/14 06:58:12;;;;;;;41.03;23.25;;;-5.30;99.90;;;;;;5071233;28;20078;-54
2022/12/14 07:01:03;;;;;;;42.10;24.38;;;-5.30;99.90;;;;;;5055510;28;20103;-53
2022/12/14 07:03:54;;;;;;;43.53;23.85;;;-5.30;99.90;;;;;;5077841;28;20036;-49
2022/12/14 07:06:40;;;;;;;37.83;21.85;;;-5.20;99.90;;;;;;5070957;28;20060;-50
2022/12/14 07:09:26;;;;;;;41.45;23.13;;;-5.30;99.90;;;;;;5080961;28;20024;-49
2022/12/14 07:12:12;;;;;;;44.72;22.50;;;-5.20;99.90;;;;;;5059890;28;20531;-48
2022/12/14 07:14:58;;;;;;;41.17;22.25;;;-5.10;99.90;;;;;;5077470;28;20035;-54
2022/12/14 07:17:44;;;;;;;39.75;22.02;;;-5.10;99.90;;;;;;5050851;28;20024;-53
2022/12/14 07:20:30;;;;;;;40.53;23.05;;;-5.20;99.90;;;;;;5051141;28;20108;-49
2022/12/14 07:23:16;;;;;;;43.78;23.83;;;-5.20;99.90;;;;;;5067776;28;20025;-49
2022/12/14 07:26:05;;;;;;;39.75;23.02;;;-5.30;99.90;;;;;;5071447;28;20047;-53
2022/12/14 07:28:52;;;;;;;38.38;24.15;;;-5.20;99.90;;;;;;5082524;28;20032;-50
2022/12/14 07:31:38;;;;;;;41.50;23.92;;;-5.20;99.90;;;;;;5069332;28;20032;-48
2022/12/14 07:34:24;;;;;;;38.65;23.30;;;-5.30;99.90;;;;;;5071291;28;20539;-48
2022/12/14 07:37:12;;;;;;;38.90;23.70;;;-5.20;99.90;;;;;;5070851;28;20040;-50
2022/12/14 07:39:58;;;;;;;44.33;23.77;;;-5.20;99.90;;;;;;5071306;28;20029;-51
2022/12/14 07:42:48;;;;;;;42.60;23.67;;;-5.20;99.90;;;;;;5072936;28;20071;-47
2022/12/14 07:45:34;;;;;;;42.13;23.73;;;-5.10;99.90;;;;;;5064037;28;20028;-51
2022/12/14 07:48:20;;;;;;;42.85;23.23;;;-5.10;99.90;;;;;;5082697;28;20488;-52
2022/12/14 07:51:11;;;;;;;41.22;22.60;;;-5.00;99.90;;;;;;5090713;28;20028;-49
2022/12/14 07:54:00;;;;;;;41.67;23.33;;;-5.00;99.90;;;;;;5090280;28;20085;-49
2022/12/14 07:56:46;;;;;;;46.95;24.67;;;-4.90;99.90;;;;;;5090349;28;20028;-49
2022/12/14 07:59:33;;;;;;;38.05;21.88;;;-4.90;99.90;;;;;;5075122;28;20020;-51
2022/12/14 08:02:18;;;;;;;53.95;29.10;;;-4.90;99.90;;;;;;5070044;28;20029;-48
2022/12/14 08:05:05;;;;;;;113.35;49.15;;;-4.90;99.90;;;;;;5081023;28;20029;-53
2022/12/14 08:07:51;;;;;;;66.95;35.08;;;-4.80;99.90;;;;;;5055236;28;20029;-49
2022/12/14 08:10:37;;;;;;;51.80;28.98;;;-4.80;99.90;;;;;;5040259;28;20029;-52
2022/12/14 08:13:23;;;;;;;44.53;24.42;;;-4.70;99.90;;;;;;5054231;28;20029;-49
2022/12/14 08:16:12;;;;;;;38.95;23.98;;;-4.60;99.90;;;;;;5054271;28;20051;-47
2022/12/14 08:18:59;;;;;;;39.33;23.10;;;-4.60;99.90;;;;;;5054015;28;20024;-50
2022/12/14 08:21:45;;;;;;;40.88;23.77;;;-4.50;99.90;;;;;;5053562;28;20059;-50
2022/12/14 08:24:31;;;;;;;45.45;23.58;;;-4.50;99.90;;;;;;5053719;28;20083;-49
2022/12/14 08:27:17;;;;;;;38.03;22.50;;;-4.50;99.90;;;;;;5039963;28;20079;-51
2022/12/14 08:30:03;;;;;;;34.83;22.02;;;-4.50;99.90;;;;;;5053712;28;20082;-52
2022/12/14 08:32:49;;;;;;;34.88;21.10;;;-4.40;99.90;;;;;;5054760;28;20112;-48
2022/12/14 08:35:35;;;;;;;33.10;18.73;;;-4.40;99.90;;;;;;5053337;28;20036;-52
2022/12/14 08:38:21;;;;;;;31.08;17.92;;;-4.30;99.90;;;;;;5054665;28;20028;-51
2022/12/14 08:41:11;;;;;;;29.90;17.98;;;-4.20;99.90;;;;;;5053684;28;20029;-50
2022/12/14 08:43:59;;;;;;;29.42;18.67;;;-4.20;99.90;;;;;;5039092;28;20021;-50
2022/12/14 08:46:45;;;;;;;28.80;18.55;;;-4.10;99.90;;;;;;5053552;28;20029;-48
2022/12/14 08:49:31;;;;;;;28.38;18.55;;;-4.10;99.90;;;;;;5061488;28;20509;-51
2022/12/14 08:52:20;;;;;;;31.60;18.02;;;-4.00;99.90;;;;;;5058569;28;20033;-50
2022/12/14 08:55:06;;;;;;;30.95;19.38;;;-3.90;99.90;;;;;;5058588;28;20040;-49
2022/12/14 08:57:52;;;;;;;31.23;18.45;;;-3.80;99.90;;;;;;5073055;28;20025;-51
2022/12/14 09:00:38;;;;;;;30.90;19.00;;;-3.70;99.90;;;;;;5072797;28;20035;-51
2022/12/14 09:03:24;;;;;;;30.15;18.17;;;-3.70;99.90;;;;;;5072864;28;20020;-55
2022/12/14 09:06:15;;;;;;;34.90;20.33;;;-3.60;99.90;;;;;;5073530;28;20033;-56
2022/12/14 09:09:02;;;;;;;34.28;17.63;;;-3.60;99.90;;;;;;5072558;28;20024;-52
2022/12/14 09:11:48;;;;;;;29.65;18.13;;;-3.50;99.90;;;;;;5058120;28;20028;-53
2022/12/14 09:14:34;;;;;;;33.28;20.27;;;-3.40;99.90;;;;;;5072714;28;20080;-48
2022/12/14 09:17:20;;;;;;;30.77;20.02;;;-3.40;99.90;;;;;;5072767;28;20064;-50
2022/12/14 09:20:06;;;;;;;32.80;20.23;;;-3.50;99.90;;;;;;5072486;28;20029;-52
2022/12/14 09:22:52;;;;;;;35.40;20.15;;;-3.40;99.90;;;;;;5072818;28;20120;-54
2022/12/14 09:25:38;;;;;;;35.45;19.90;;;-3.40;99.90;;;;;;5057949;28;20107;-53
2022/12/14 09:28:24;;;;;;;34.03;19.02;;;-3.30;99.90;;;;;;5073047;28;20090;-51
2022/12/14 09:31:12;;;;;;;32.65;19.80;;;-3.20;99.90;;;;;;5055881;28;20024;-52
2022/12/14 09:33:58;;;;;;;33.38;20.48;;;-3.10;99.90;;;;;;5068127;28;20033;-49
2022/12/14 09:36:44;;;;;;;29.27;18.70;;;-3.00;99.90;;;;;;5052033;28;20064;-51
2022/12/14 09:39:31;;;;;;;31.15;18.40;;;-2.90;99.90;;;;;;5052650;28;20021;-50
2022/12/14 09:42:44;;;;;;;32.40;19.05;;;-2.90;99.90;;;;;;5052942;28;20029;-49
2022/12/14 09:45:43;;;;;;;32.22;19.15;;;-2.80;99.90;;;;;;5064603;28;20020;-49
2022/12/14 09:48:29;;;;;;;32.13;19.20;;;-2.80;99.90;;;;;;5070598;28;20028;-50
2022/12/14 09:51:19;;;;;;;31.45;19.52;;;-2.70;99.90;;;;;;5056194;28;20067;-52
2022/12/14 09:54:09;;;;;;;28.83;18.95;;;-2.60;99.90;;;;;;5048697;28;20024;-53
2022/12/14 09:57:00;;;;;;;32.17;19.05;;;-2.70;99.90;;;;;;5062320;28;20033;-52
2022/12/14 09:59:46;;;;;;;32.20;19.30;;;-2.70;99.90;;;;;;5070854;28;20036;-50
2022/12/14 10:03:15;;;;;;;31.95;19.27;;;-2.60;99.90;;;;;;5076286;28;20048;-50
2022/12/14 10:06:20;;;;;;;26.35;17.15;;;-2.60;99.90;;;;;;4983926;28;20034;-50
2022/12/14 10:09:14;;;;;;;30.60;18.90;;;-2.50;99.90;;;;;;4990074;28;20054;-52
2022/12/14 10:12:14;;;;;;;30.40;18.80;;;-2.50;99.90;;;;;;5067420;28;20021;-48
2022/12/14 10:15:16;;;;;;;32.92;19.73;;;-2.50;99.90;;;;;;5061704;28;20374;-47
2022/12/14 10:18:47;;;;;;;27.48;18.70;;;-2.50;99.90;;;;;;5047934;28;20090;-51
2022/12/14 10:21:49;;;;;;;29.83;16.60;;;-2.50;99.90;;;;;;5049902;28;20050;-51
2022/12/14 10:24:48;;;;;;;35.47;20.10;;;-2.40;99.90;;;;;;5065663;28;20394;-47
2022/12/14 10:27:34;;;;;;;29.25;18.73;;;-2.40;99.90;;;;;;5075158;28;20038;-48
2022/12/14 10:30:21;;;;;;;31.55;18.38;;;-2.30;99.90;;;;;;5082026;28;20032;-49
2022/12/14 10:33:23;;;;;;;34.88;20.63;;;-2.30;99.90;;;;;;5074698;28;20033;-49
2022/12/14 10:36:27;;;;;;;30.48;18.40;;;-2.30;99.90;;;;;;5079389;28;20119;-49
2022/12/14 10:39:23;;;;;;;30.77;19.98;;;-2.30;99.90;;;;;;5067031;28;20021;-49
2022/12/14 10:42:19;;;;;;;31.27;19.90;;;-2.20;99.90;;;;;;5066247;28;20161;-47
2022/12/14 10:45:31;;;;;;;33.70;19.88;;;-2.10;99.90;;;;;;5072839;28;20062;-46
2022/12/14 10:48:39;;;;;;;29.83;19.35;;;-2.10;99.90;;;;;;5076588;28;20029;-48
2022/12/14 10:51:36;;;;;;;29.88;19.00;;;-2.00;99.90;;;;;;5074448;28;20059;-48
2022/12/14 10:54:33;;;;;;;32.60;20.52;;;-2.00;99.90;;;;;;5076934;28;20032;-51
2022/12/14 10:57:22;;;;;;;30.80;20.92;;;-2.10;99.90;;;;;;5076343;28;20031;-51
2022/12/14 11:00:15;;;;;;;35.45;20.80;;;-2.10;99.90;;;;;;5082227;28;20020;-48
2022/12/14 11:03:03;;;;;;;31.30;20.70;;;-2.10;99.90;;;;;;5068239;28;20055;-49
2022/12/14 11:06:01;;;;;;;36.05;21.13;;;-2.00;99.90;;;;;;5068406;28;20028;-49
2022/12/14 11:08:48;;;;;;;32.67;20.52;;;-2.00;99.90;;;;;;5071843;28;20040;-48
2022/12/14 11:11:34;;;;;;;34.55;21.48;;;-2.00;99.90;;;;;;5065140;28;20027;-52
2022/12/14 11:14:22;;;;;;;32.22;22.08;;;-2.00;99.90;;;;;;5070804;28;20028;-50
2022/12/14 11:17:38;;;;;;;34.97;22.23;;;-2.00;99.90;;;;;;5068774;28;20021;-55
2022/12/14 11:20:24;;;;;;;39.03;22.88;;;-1.90;99.90;;;;;;5070182;28;20037;-54
2022/12/14 11:23:19;;;;;;;30.08;20.42;;;-1.90;99.90;;;;;;5072733;28;20029;-52
2022/12/14 11:26:15;;;;;;;36.63;20.73;;;-1.80;99.90;;;;;;5052391;28;20039;-49
2022/12/14 11:29:04;;;;;;;30.67;19.23;;;-1.80;99.90;;;;;;5051265;28;20118;-51
2022/12/14 11:31:53;;;;;;;31.83;20.67;;;-1.70;99.90;;;;;;5073334;28;20458;-49
2022/12/14 11:34:41;;;;;;;32.00;21.88;;;-1.60;99.90;;;;;;5060894;28;20090;-51
2022/12/14 11:37:29;;;;;;;37.33;21.67;;;-1.70;99.90;;;;;;5071799;28;20024;-55
2022/12/14 11:40:35;;;;;;;33.42;22.02;;;-1.80;99.90;;;;;;5073804;28;20021;-48
2022/12/14 11:43:33;;;;;;;32.10;20.88;;;-1.80;99.90;;;;;;5074160;28;20025;-52
2022/12/14 11:46:19;;;;;;;33.22;21.90;;;-1.80;99.90;;;;;;5074096;28;20029;-51
2022/12/14 11:49:22;;;;;;;34.78;21.80;;;-2.00;99.90;;;;;;5059547;28;20029;-51
2022/12/14 11:52:08;;;;;;;42.38;23.77;;;-2.10;99.90;;;;;;5073474;28;20634;-54
2022/12/14 11:54:54;;;;;;;36.42;22.20;;;-2.20;99.90;;;;;;5068775;28;20072;-54
2022/12/14 11:57:54;;;;;;;40.50;22.60;;;-2.20;99.90;;;;;;5082854;28;20410;-49
2022/12/14 12:00:51;;;;;;;37.20;23.77;;;-2.30;99.90;;;;;;5080470;28;20024;-51
2022/12/14 12:03:43;;;;;;;38.72;22.85;;;-2.50;99.90;;;;;;5065324;28;20034;-51
2022/12/14 12:06:30;;;;;;;41.65;23.45;;;-2.40;99.90;;;;;;5072297;28;20039;-50
2022/12/14 12:09:29;;;;;;;38.13;23.83;;;-2.30;99.90;;;;;;5073190;28;20086;-52
2022/12/14 12:12:19;;;;;;;37.30;24.48;;;-2.20;99.90;;;;;;5071417;28;20416;-50
2022/12/14 12:15:14;;;;;;;37.33;23.73;;;-2.10;99.90;;;;;;5073056;28;20119;-48
2022/12/14 12:18:06;;;;;;;;;;;-2.10;99.90;;;;;;5071332;28;20028;-48
2022/12/14 12:21:15;;;;;;;35.92;22.83;;;-2.10;99.90;;;;;;5063267;28;19905;-47
2022/12/14 12:24:13;;;;;;;34.90;21.95;;;-2.10;99.90;;;;;;5073325;28;20043;-51
2022/12/14 12:27:02;;;;;;;42.30;23.90;;;-2.20;99.90;;;;;;5067668;28;20396;-48
2022/12/14 12:30:03;;;;;;;38.90;24.52;;;-2.20;99.90;;;;;;5067526;28;20035;-56
2022/12/14 12:32:52;;;;;;;44.20;25.00;;;-2.20;99.90;;;;;;5071498;28;20401;-49
2022/12/14 12:36:03;;;;;;;38.42;24.45;;;-2.20;99.90;;;;;;5071593;28;20052;-56
2022/12/14 12:38:59;;;;;;;38.17;23.02;;;-2.30;99.90;;;;;;5071495;28;20037;-51
2022/12/14 12:42:05;;;;;;;42.97;26.50;;;-2.20;99.90;;;;;;5067339;28;20081;-52
2022/12/14 12:45:02;;;;;;;41.65;23.55;;;-2.10;99.90;;;;;;5069800;28;20404;-51
2022/12/14 12:48:20;;;;;;;38.78;24.48;;;-2.10;99.90;;;;;;5071746;28;20025;-53
2022/12/14 12:51:22;;;;;;;41.17;24.90;;;-2.10;99.90;;;;;;5052492;28;20040;-51
2022/12/14 12:54:16;;;;;;;38.25;23.35;;;-2.10;99.90;;;;;;5060373;28;20036;-49
2022/12/14 12:57:05;;;;;;;39.20;23.60;;;-2.00;99.90;;;;;;5064629;28;20051;-51
2022/12/14 12:59:54;;;;;;;40.60;23.58;;;-2.10;99.90;;;;;;5070219;28;20493;-54
2022/12/14 13:03:07;;;;;;;41.45;24.55;;;-2.10;99.90;;;;;;5071420;28;20039;-51
2022/12/14 13:06:00;;;;;;;40.60;23.20;;;-2.10;99.90;;;;;;5071746;28;20108;-54
2022/12/14 13:08:50;;;;;;;46.45;25.48;;;-2.00;99.90;;;;;;5064246;28;20082;-51
2022/12/14 13:11:38;;;;;;;41.55;25.45;;;-2.00;99.90;;;;;;5070005;28;20483;-53
2022/12/14 13:14:39;;;;;;;40.50;24.92;;;-2.10;99.90;;;;;;5066868;28;20111;-54
2022/12/14 13:17:38;;;;;;;45.40;24.90;;;-2.10;99.90;;;;;;5056460;28;20041;-53
2022/12/14 13:20:29;;;;;;;39.70;24.80;;;-2.00;99.90;;;;;;5049247;28;20060;-53
2022/12/14 13:23:17;;;;;;;39.55;26.38;;;-2.10;99.90;;;;;;5040295;28;20036;-50
2022/12/14 13:26:27;;;;;;;41.75;25.45;;;-2.20;99.90;;;;;;5071732;28;20392;-54
2022/12/14 13:29:31;;;;;;;41.45;25.67;;;-2.20;99.90;;;;;;5070487;28;20032;-50
2022/12/14 13:32:44;;;;;;;39.25;24.23;;;-2.20;99.90;;;;;;5070771;28;20531;-55
2022/12/14 13:36:07;;;;;;;38.50;24.50;;;-2.20;99.90;;;;;;5072324;28;20020;-53
2022/12/14 13:39:29;;;;;;;38.60;23.25;;;-2.20;99.90;;;;;;5067404;28;20532;-51
2022/12/14 13:42:43;;;;;;;36.92;23.13;;;-2.20;99.90;;;;;;5062141;28;20021;-53
2022/12/14 13:45:36;;;;;;;40.22;24.90;;;-2.10;99.90;;;;;;5079050;28;20028;-51
2022/12/14 13:48:26;;;;;;;42.33;24.30;;;-2.10;99.90;;;;;;5073598;28;20024;-51
2022/12/14 13:51:29;;;;;;;38.55;24.23;;;-2.10;99.90;;;;;;5080892;28;20028;-51
2022/12/14 13:54:26;;;;;;;38.63;24.20;;;-2.10;99.90;;;;;;5088129;28;20040;-51
2022/12/14 13:57:20;;;;;;;39.20;24.10;;;-1.90;99.90;;;;;;5072671;28;20163;-51
2022/12/14 14:00:06;;;;;;;39.40;23.27;;;-1.80;99.90;;;;;;5070370;28;20140;-55
2022/12/14 14:02:52;;;;;;;38.83;24.35;;;-1.80;99.90;;;;;;5051011;28;20032;-53
2022/12/14 14:05:43;;;;;;;37.15;23.58;;;-1.80;99.90;;;;;;5079356;28;20031;-52
2022/12/14 14:08:34;;;;;;;36.33;22.17;;;-1.70;99.90;;;;;;5062930;28;20032;-51
2022/12/14 14:11:26;;;;;;;40.88;25.25;;;-1.80;99.90;;;;;;5070631;28;20063;-55
2022/12/14 14:14:27;;;;;;;41.03;25.52;;;-1.90;99.90;;;;;;5073715;28;20046;-51
2022/12/14 14:17:22;;;;;;;38.15;23.92;;;-2.00;99.90;;;;;;5081430;28;20020;-57
2022/12/14 14:20:30;;;;;;;38.00;24.42;;;-2.10;99.90;;;;;;5088686;28;20020;-54
2022/12/14 14:23:25;;;;;;;40.60;26.15;;;-2.00;99.90;;;;;;5073035;28;20055;-52
2022/12/14 14:26:23;;;;;;;50.88;28.05;;;-2.00;99.90;;;;;;5074353;28;20031;-54
2022/12/14 14:29:28;;;;;;;44.65;25.42;;;-2.00;99.90;;;;;;5081062;28;20028;-54
2022/12/14 14:32:31;;;;;;;40.00;24.50;;;-2.00;99.90;;;;;;5089087;28;20028;-54
2022/12/14 14:35:29;;;;;;;39.53;24.40;;;-2.00;99.90;;;;;;5066897;28;20032;-52
2022/12/14 14:38:30;;;;;;;42.72;26.73;;;-2.00;99.90;;;;;;5061436;28;20170;-52
2022/12/14 14:41:23;;;;;;;39.10;25.30;;;-2.10;99.90;;;;;;5070940;28;20024;-53
2022/12/14 14:44:35;;;;;;;41.15;25.42;;;-2.00;99.90;;;;;;5070624;28;20057;-53
2022/12/14 14:47:30;;;;;;;42.08;24.20;;;-2.00;99.90;;;;;;5070736;28;20024;-52
2022/12/14 14:50:16;;;;;;;42.00;25.43;;;-2.00;99.90;;;;;;5073072;28;20017;-52